createdAt,value
2023-01-11T00:01:53.731Z,12.93
2023-01-11T00:04:44.372Z,15.63
2023-01-11T00:07:35.122Z,11.95
2023-01-11T00:10:25.578Z,16.88
2023-01-11T00:13:15.823Z,9.15
2023-01-11T00:16:10.203Z,13.35
2023-01-11T00:18:58.302Z,9.82
2023-01-11T00:21:46.476Z,8.30
2023-01-11T00:24:34.538Z,12.07
2023-01-11T00:27:22.356Z,12.27
2023-01-11T00:30:10.646Z,7.55
2023-01-11T00:33:00.592Z,8.20
2023-01-11T00:35:54.220Z,7.50
2023-01-11T00:38:45.018Z,11.93
2023-01-11T00:41:52.065Z,10.98
2023-01-11T00:45:01.168Z,8.07
2023-01-11T00:47:57.901Z,8.90
2023-01-11T00:50:46.498Z,9.43
2023-01-11T00:53:34.375Z,9.75
2023-01-11T00:56:23.209Z,9.45
2023-01-11T00:59:14.451Z,11.10
2023-01-11T01:02:08.430Z,9.77
2023-01-11T01:07:46.385Z,5.75
2023-01-11T01:10:35.097Z,7.18
2023-01-11T01:13:41.660Z,10.60
2023-01-11T01:16:29.681Z,8.88
2023-01-11T01:19:21.525Z,10.10
2023-01-11T01:22:11.661Z,8.60
2023-01-11T01:25:01.873Z,8.55
2023-01-11T01:27:49.847Z,6.22
2023-01-11T01:30:40.439Z,17.58
2023-01-11T01:33:34.383Z,8.80
2023-01-11T01:36:22.463Z,8.18
2023-01-11T01:39:12.276Z,19.67
2023-01-11T01:42:00.959Z,13.65
2023-01-11T01:45:00.932Z,16.65
2023-01-11T01:47:59.631Z,13.57
2023-01-11T01:51:00.459Z,10.63
2023-01-11T01:53:53.219Z,9.93
2023-01-11T01:56:49.758Z,10.95
2023-01-11T01:59:37.804Z,12.75
2023-01-11T02:02:26.496Z,8.10
2023-01-11T02:05:18.152Z,13.35
2023-01-11T02:08:13.340Z,11.02
2023-01-11T02:11:04.355Z,9.50
2023-01-11T02:13:56.427Z,11.27
2023-01-11T02:16:45.341Z,12.88
2023-01-11T02:19:33.180Z,11.60
2023-01-11T02:22:54.982Z,10.98
2023-01-11T02:25:54.549Z,21.00
2023-01-11T02:28:49.400Z,10.70
2023-01-11T02:31:51.677Z,9.20
2023-01-11T02:34:49.000Z,13.73
2023-01-11T02:38:02.925Z,12.15
2023-01-11T02:41:06.962Z,12.75
2023-01-11T02:44:27.179Z,14.82
2023-01-11T02:47:24.111Z,13.35
2023-01-11T02:50:20.916Z,16.02
2023-01-11T02:53:28.098Z,11.60
2023-01-11T02:56:26.250Z,13.85
2023-01-11T02:59:22.581Z,16.40
2023-01-11T03:02:17.225Z,11.65
2023-01-11T03:05:17.066Z,11.98
2023-01-11T03:08:29.907Z,18.13
2023-01-11T03:12:04.658Z,10.48
2023-01-11T03:15:17.815Z,9.82
2023-01-11T03:18:11.620Z,12.52
2023-01-11T03:21:34.317Z,17.35
2023-01-11T03:24:37.003Z,10.57
2023-01-11T03:28:14.456Z,14.50
2023-01-11T03:31:22.113Z,14.65
2023-01-11T03:34:38.626Z,14.65
2023-01-11T03:37:38.588Z,10.85
2023-01-11T03:40:33.805Z,10.63
2023-01-11T03:43:23.677Z,13.35
2023-01-11T03:46:16.562Z,12.35
2023-01-11T03:49:27.672Z,8.95
2023-01-11T03:52:21.564Z,12.60
2023-01-11T03:55:12.813Z,11.00
2023-01-11T03:58:00.747Z,9.32
2023-01-11T04:00:50.469Z,10.25
2023-01-11T04:03:38.835Z,15.07
2023-01-11T04:06:29.840Z,10.95
2023-01-11T04:09:18.276Z,10.90
2023-01-11T04:12:06.966Z,16.75
2023-01-11T04:14:54.849Z,15.65
2023-01-11T04:17:42.997Z,15.20
2023-01-11T04:20:32.763Z,9.60
2023-01-11T04:23:20.767Z,14.00
2023-01-11T04:26:08.602Z,19.67
2023-01-11T04:28:56.552Z,18.35
2023-01-11T04:31:44.470Z,19.40
2023-01-11T04:34:35.199Z,11.80
2023-01-11T04:37:23.608Z,16.55
2023-01-11T04:40:12.013Z,20.48
2023-01-11T04:43:02.620Z,17.13
2023-01-11T04:45:50.811Z,19.52
2023-01-11T04:48:42.378Z,14.85
2023-01-11T04:51:30.361Z,11.95
2023-01-11T04:54:18.494Z,16.02
2023-01-11T04:57:12.396Z,16.48
2023-01-11T05:00:00.440Z,16.48
2023-01-11T05:02:48.368Z,17.48
2023-01-11T05:05:36.269Z,17.92
2023-01-11T05:08:25.606Z,19.05
2023-01-11T05:11:14.183Z,18.27
2023-01-11T05:14:02.255Z,11.20
2023-01-11T05:16:50.526Z,14.63
2023-01-11T05:19:38.632Z,15.77
2023-01-11T05:22:28.709Z,18.85
2023-01-11T05:25:17.195Z,12.30
2023-01-11T05:28:04.839Z,16.50
2023-01-11T05:30:53.427Z,10.68
2023-01-11T05:33:41.119Z,12.63
2023-01-11T05:36:29.600Z,12.25
2023-01-11T05:39:20.567Z,16.48
2023-01-11T05:42:09.241Z,10.40
2023-01-11T05:45:15.605Z,14.98
2023-01-11T05:48:06.591Z,16.13
2023-01-11T05:51:01.528Z,15.50
2023-01-11T05:53:54.678Z,15.93
2023-01-11T05:56:48.472Z,21.08
2023-01-11T05:59:36.650Z,23.30
2023-01-11T06:02:24.371Z,24.98
2023-01-11T06:05:12.359Z,17.15
2023-01-11T06:08:02.921Z,18.40
2023-01-11T06:10:58.459Z,19.40
2023-01-11T06:13:51.501Z,24.40
2023-01-11T06:16:39.932Z,22.23
2023-01-11T06:19:31.323Z,23.63
2023-01-11T06:23:00.695Z,26.50
2023-01-11T06:29:35.975Z,28.83
2023-01-11T06:32:29.464Z,23.48
2023-01-11T06:35:41.141Z,20.10
2023-01-11T06:42:52.873Z,19.58
2023-01-11T06:46:28.905Z,23.52
2023-01-11T06:49:24.944Z,24.42
2023-01-11T07:00:06.132Z,26.33
2023-01-11T07:10:52.075Z,18.17
2023-01-11T07:17:48.165Z,25.70
2023-01-11T07:20:55.627Z,29.42
2023-01-11T07:27:00.411Z,20.50
2023-01-11T07:29:59.543Z,23.30
2023-01-11T07:32:52.800Z,25.67
2023-01-11T07:35:42.353Z,23.57
2023-01-11T07:38:39.790Z,22.48
2023-01-11T07:41:47.394Z,22.27
2023-01-11T07:44:35.111Z,25.13
2023-01-11T07:47:23.050Z,27.10
2023-01-11T07:50:28.725Z,29.85
2023-01-11T07:53:34.643Z,24.42
2023-01-11T07:56:34.942Z,31.80
2023-01-11T07:59:33.822Z,26.17
2023-01-11T08:02:52.837Z,33.20
2023-01-11T08:06:09.145Z,30.65
2023-01-11T08:09:10.105Z,29.33
2023-01-11T08:12:24.186Z,29.75
2023-01-11T08:15:22.249Z,30.35
2023-01-11T08:22:01.655Z,32.20
2023-01-11T08:25:03.620Z,40.08
2023-01-11T08:28:01.764Z,26.50
2023-01-11T08:31:08.346Z,30.75
2023-01-11T08:33:58.742Z,29.42
2023-01-11T08:36:49.873Z,33.30
2023-01-11T08:39:37.896Z,32.17
2023-01-11T08:42:30.545Z,28.60
2023-01-11T08:45:21.275Z,33.38
2023-01-11T08:48:19.050Z,27.83
2023-01-11T08:51:12.250Z,26.70
2023-01-11T08:54:11.985Z,20.90
2023-01-11T08:57:01.539Z,29.13
2023-01-11T08:59:51.709Z,32.05
2023-01-11T09:02:39.896Z,25.88
2023-01-11T09:05:31.349Z,27.33
2023-01-11T09:08:27.812Z,23.13
2023-01-11T09:11:35.030Z,22.08
2023-01-11T09:14:29.896Z,21.98
2023-01-11T09:17:21.053Z,18.65
2023-01-11T09:20:15.511Z,24.42
2023-01-11T09:23:20.135Z,17.80
2023-01-11T09:26:16.612Z,19.25
2023-01-11T09:29:15.491Z,20.25
2023-01-11T09:32:13.199Z,20.23
2023-01-11T09:35:04.977Z,20.38
2023-01-11T09:37:59.424Z,18.25
2023-01-11T09:40:50.044Z,19.25
2023-01-11T09:44:22.400Z,19.90
2023-01-11T09:47:41.474Z,20.83
2023-01-11T09:50:33.610Z,18.08
2023-01-11T09:53:32.938Z,24.02
2023-01-11T09:56:48.747Z,31.35
2023-01-11T10:00:35.221Z,21.40
2023-01-11T10:03:45.561Z,20.98
2023-01-11T10:07:22.145Z,20.73
2023-01-11T10:18:33.347Z,18.80
2023-01-11T10:19:17.051Z,17.95
2023-01-11T10:22:02.737Z,18.02
2023-01-11T10:25:35.116Z,23.08
2023-01-11T10:28:47.619Z,24.00
2023-01-11T10:32:00.654Z,22.00
2023-01-11T10:35:22.824Z,24.17
2023-01-11T10:39:07.909Z,18.65
2023-01-11T10:42:50.738Z,24.40
2023-01-11T10:46:30.682Z,26.10
2023-01-11T10:57:26.729Z,19.53
2023-01-11T11:00:42.177Z,15.75
2023-01-11T11:03:46.636Z,15.55
2023-01-11T11:10:01.011Z,11.40
2023-01-11T11:13:09.961Z,10.70
2023-01-11T11:16:24.531Z,12.63
2023-01-11T11:19:24.436Z,9.50
2023-01-11T11:22:14.485Z,8.20
2023-01-11T11:25:08.132Z,9.30
2023-01-11T11:28:05.133Z,10.98
2023-01-11T11:30:58.595Z,9.63
2023-01-11T11:33:47.616Z,9.50
2023-01-11T11:37:02.250Z,12.85
2023-01-11T11:39:52.419Z,13.45
2023-01-11T11:42:43.477Z,17.27
2023-01-11T11:45:31.295Z,16.30
2023-01-11T11:48:19.737Z,11.85
2023-01-11T11:51:14.185Z,13.38
2023-01-11T11:54:02.967Z,13.48
2023-01-11T11:56:54.267Z,12.80
2023-01-11T11:59:52.003Z,11.23
2023-01-11T12:02:46.246Z,11.23
2023-01-11T12:05:38.986Z,10.75
2023-01-11T12:08:32.142Z,9.48
2023-01-11T12:11:26.694Z,12.18
2023-01-11T12:14:25.742Z,8.90
2023-01-11T12:17:30.293Z,8.40
2023-01-11T12:20:36.424Z,13.38
2023-01-11T12:23:27.742Z,8.63
2023-01-11T12:26:24.400Z,9.32
2023-01-11T12:29:36.101Z,9.23
2023-01-11T12:32:52.810Z,10.32
2023-01-11T12:36:18.520Z,7.75
2023-01-11T12:39:13.781Z,7.35
2023-01-11T12:42:16.456Z,5.18
2023-01-11T12:45:40.559Z,6.03
2023-01-11T12:48:52.510Z,7.93
2023-01-11T12:52:26.460Z,6.07
2023-01-11T12:55:33.492Z,9.68
2023-01-11T13:01:56.745Z,7.60
2023-01-11T13:04:57.900Z,6.63
2023-01-11T13:07:57.817Z,4.72
2023-01-11T13:11:10.656Z,8.38
2023-01-11T13:14:22.463Z,7.22
2023-01-11T13:17:17.079Z,7.85
2023-01-11T13:20:23.627Z,5.38
2023-01-11T13:23:25.338Z,5.63
2023-01-11T13:26:29.826Z,5.80
2023-01-11T13:32:37.193Z,3.40
2023-01-11T13:35:38.261Z,2.92
2023-01-11T13:38:54.811Z,5.22
2023-01-11T13:41:49.444Z,4.60
2023-01-11T13:44:47.343Z,6.20
2023-01-11T13:47:39.816Z,5.00
2023-01-11T13:50:40.929Z,3.97
2023-01-11T13:53:44.225Z,3.70
2023-01-11T13:56:37.805Z,6.28
2023-01-11T13:59:49.019Z,4.22
2023-01-11T14:02:49.826Z,4.25
2023-01-11T14:05:56.413Z,5.43
2023-01-11T14:09:01.425Z,4.95
2023-01-11T14:12:17.326Z,6.32
2023-01-11T14:15:29.646Z,6.78
2023-01-11T14:18:40.500Z,3.63
2023-01-11T14:21:41.795Z,7.25
2023-01-11T14:24:41.763Z,5.63
2023-01-11T14:28:06.193Z,3.55
2023-01-11T14:31:30.465Z,5.45
2023-01-11T14:34:52.493Z,6.57
2023-01-11T14:37:49.851Z,8.35
2023-01-11T14:41:34.650Z,4.75
2023-01-11T14:44:48.638Z,8.88
2023-01-11T14:47:56.352Z,4.73
2023-01-11T14:51:33.457Z,4.78
2023-01-11T14:54:41.740Z,7.43
2023-01-11T14:57:43.912Z,6.25
2023-01-11T15:00:36.533Z,6.07
2023-01-11T15:03:26.534Z,5.35
2023-01-11T15:06:17.499Z,6.07
2023-01-11T15:09:53.417Z,3.60
2023-01-11T15:12:45.628Z,5.28
2023-01-11T15:15:53.237Z,8.07
2023-01-11T15:18:47.741Z,9.60
2023-01-11T15:21:50.567Z,6.78
2023-01-11T15:24:44.374Z,5.53
2023-01-11T15:27:39.090Z,14.52
2023-01-11T15:30:36.908Z,6.63
2023-01-11T15:33:26.025Z,9.70
2023-01-11T15:36:15.939Z,13.43
2023-01-11T15:39:12.499Z,11.40
2023-01-11T15:42:15.820Z,9.05
2023-01-11T15:46:01.465Z,11.18
2023-01-11T15:49:33.274Z,8.10
2023-01-11T15:53:06.302Z,10.95
2023-01-11T15:56:31.073Z,8.32
2023-01-11T15:59:39.941Z,12.95
2023-01-11T16:02:50.877Z,9.00
2023-01-11T16:05:44.633Z,9.90
2023-01-11T16:09:09.272Z,14.07
2023-01-11T16:12:37.952Z,10.20
2023-01-11T16:15:41.652Z,8.85
2023-01-11T16:18:54.930Z,11.38
2023-01-11T16:21:49.407Z,11.07
2023-01-11T16:24:52.752Z,10.77
2023-01-11T16:27:44.462Z,13.27
2023-01-11T16:30:32.529Z,14.15
2023-01-11T16:33:29.363Z,15.57
2023-01-11T16:36:24.251Z,14.25
2023-01-11T16:39:14.563Z,12.57
2023-01-11T16:42:08.016Z,11.23
2023-01-11T16:45:06.348Z,14.38
2023-01-11T16:48:04.707Z,16.10
2023-01-11T16:51:17.941Z,14.07
2023-01-11T16:54:10.018Z,11.60
2023-01-11T16:57:01.175Z,15.30
2023-01-11T17:00:21.182Z,19.88
2023-01-11T17:03:22.126Z,13.30
2023-01-11T17:06:12.912Z,10.98
2023-01-11T17:09:10.919Z,16.52
2023-01-11T17:12:03.492Z,16.67
2023-01-11T17:15:29.909Z,13.93
2023-01-11T17:18:18.309Z,14.32
2023-01-11T17:21:08.254Z,11.00
2023-01-11T17:24:02.598Z,12.52
2023-01-11T17:26:54.530Z,17.50
2023-01-11T17:29:47.770Z,11.05
2023-01-11T17:32:38.782Z,21.20
2023-01-11T17:35:34.020Z,18.67
2023-01-11T17:38:29.613Z,20.15
2023-01-11T17:41:37.135Z,16.80
2023-01-11T17:44:47.728Z,15.23
2023-01-11T17:47:42.462Z,15.02
2023-01-11T17:50:33.400Z,16.55
2023-01-11T17:53:34.225Z,16.70
2023-01-11T17:56:41.854Z,13.98
2023-01-11T17:59:34.336Z,15.07
2023-01-11T18:02:24.087Z,15.95
2023-01-11T18:05:24.394Z,12.05
2023-01-11T18:08:21.120Z,13.70
2023-01-11T18:11:12.239Z,15.38
2023-01-11T18:14:10.914Z,12.27
2023-01-11T18:17:01.633Z,20.88
2023-01-11T18:19:50.053Z,16.20
2023-01-11T18:22:43.724Z,19.98
2023-01-11T18:25:35.255Z,20.75
2023-01-11T18:28:32.018Z,15.23
2023-01-11T18:31:20.406Z,18.48
2023-01-11T18:34:16.744Z,18.92
2023-01-11T18:37:10.199Z,15.95
2023-01-11T18:40:08.796Z,16.75
2023-01-11T18:43:01.348Z,25.55
2023-01-11T18:45:49.345Z,20.50
2023-01-11T18:48:46.412Z,18.80
2023-01-11T18:51:40.060Z,14.93
2023-01-11T18:54:28.361Z,15.35
2023-01-11T18:57:16.575Z,16.08
2023-01-11T19:00:05.222Z,15.07
2023-01-11T19:02:57.108Z,14.73
2023-01-11T19:05:44.935Z,14.20
2023-01-11T19:08:36.208Z,19.05
2023-01-11T19:11:25.955Z,18.30
2023-01-11T19:14:17.192Z,17.15
2023-01-11T19:17:07.503Z,17.45
2023-01-11T19:23:19.880Z,16.33
2023-01-11T19:26:10.438Z,17.60
2023-01-11T19:29:03.913Z,17.83
2023-01-11T19:31:52.956Z,16.77
2023-01-11T19:34:54.274Z,14.13
2023-01-11T19:37:42.687Z,13.90
2023-01-11T19:40:33.323Z,15.48
2023-01-11T19:43:24.602Z,13.63
2023-01-11T19:46:30.206Z,13.25
2023-01-11T19:49:21.850Z,11.25
2023-01-11T19:52:14.615Z,14.82
2023-01-11T19:55:03.586Z,12.70
2023-01-11T19:57:58.183Z,15.43
2023-01-11T20:01:14.298Z,16.35
2023-01-11T20:04:13.965Z,17.60
2023-01-11T20:07:06.163Z,11.25
2023-01-11T20:10:08.940Z,12.60
2023-01-11T20:13:02.392Z,13.95
2023-01-11T20:15:54.688Z,16.15
2023-01-11T20:18:46.456Z,16.95
2023-01-11T20:21:52.926Z,10.13
2023-01-11T20:25:01.066Z,15.75
2023-01-11T20:27:59.944Z,15.13
2023-01-11T20:30:53.061Z,22.48
2023-01-11T20:33:41.795Z,22.00
2023-01-11T20:36:42.709Z,23.33
2023-01-11T20:39:39.048Z,17.77
2023-01-11T20:42:28.148Z,18.98
2023-01-11T20:45:24.908Z,19.63
2023-01-11T20:48:17.423Z,15.00
2023-01-11T20:51:07.707Z,28.95
2023-01-11T20:54:25.208Z,14.68
2023-01-11T20:57:30.809Z,16.08
2023-01-11T21:00:29.477Z,16.52
2023-01-11T21:03:32.241Z,11.88
2023-01-11T21:07:13.223Z,15.02
2023-01-11T21:10:10.406Z,14.63
2023-01-11T21:16:24.092Z,14.98
2023-01-11T21:19:19.263Z,15.68
2023-01-11T21:22:09.544Z,17.63
2023-01-11T21:25:00.014Z,20.98
2023-01-11T21:27:55.812Z,18.00
2023-01-11T21:30:51.970Z,15.07
2023-01-11T21:33:44.524Z,12.10
2023-01-11T21:36:41.184Z,15.98
2023-01-11T21:39:39.950Z,10.50
2023-01-11T21:42:30.750Z,15.48
2023-01-11T21:45:21.049Z,14.30
2023-01-11T21:48:14.800Z,18.50
2023-01-11T21:51:06.757Z,15.27
2023-01-11T21:54:04.524Z,12.20
2023-01-11T21:57:21.966Z,17.10
2023-01-11T22:00:23.085Z,17.00
2023-01-11T22:03:19.511Z,15.45
2023-01-11T22:06:49.339Z,17.77
2023-01-11T22:10:03.525Z,13.38
2023-01-11T22:13:15.088Z,15.18
2023-01-11T22:16:16.414Z,17.02
2023-01-11T22:19:11.664Z,24.20
2023-01-11T22:22:01.557Z,16.00
2023-01-11T22:24:57.551Z,22.30
2023-01-11T22:28:06.497Z,15.82
2023-01-11T22:31:05.662Z,15.85
2023-01-11T22:34:02.922Z,13.48
2023-01-11T22:36:56.841Z,17.67
2023-01-11T22:39:44.774Z,17.55
2023-01-11T22:42:47.292Z,17.95
2023-01-11T22:45:43.674Z,19.50
2023-01-11T22:48:39.845Z,18.92
2023-01-11T22:51:28.723Z,19.40
2023-01-11T22:54:25.873Z,22.55
2023-01-11T22:57:23.193Z,19.20
2023-01-11T23:00:12.751Z,14.15
2023-01-11T23:03:10.073Z,22.52
2023-01-11T23:06:11.829Z,14.82
2023-01-11T23:09:20.378Z,20.90
2023-01-11T23:15:42.015Z,16.58
2023-01-11T23:18:39.092Z,22.65
2023-01-11T23:21:31.384Z,17.40
2023-01-11T23:24:46.069Z,16.08
2023-01-11T23:30:42.909Z,18.85
2023-01-11T23:33:43.532Z,20.63
2023-01-11T23:36:35.247Z,20.58
2023-01-11T23:39:33.403Z,17.33
2023-01-11T23:42:29.655Z,15.95
2023-01-11T23:45:17.381Z,16.38
2023-01-11T23:48:06.119Z,17.92
2023-01-11T23:51:04.336Z,19.75
2023-01-11T23:53:52.163Z,17.42
2023-01-11T23:56:46.589Z,15.10
2023-01-11T23:59:39.631Z,15.02
